Time;durP1;ratioP1;P1;durP2;ratioP2;P2;SDS_P1;SDS_P2;PMS_P1;PMS_P2;Temp;Humidity;BMP_temperature;BMP_pressure;BME280_temperature;BME280_humidity;BME280_pressure;Samples;Min_cycle;Max_cycle;Signal;HPM_P1;HPM_P2
2021/07/12 00:00:32;;;;;;;;;;;;;;;21.26;59.02;100521.09;5118876;28;815;-46
2021/07/12 00:02:57;;;;;;;;;;;;;;;21.29;58.04;100526.00;5118712;28;1288;-48
2021/07/12 00:05:23;;;;;;;;;;;;;;;21.26;57.97;100524.66;5135227;27;1909;-47
2021/07/12 00:07:49;;;;;;;;;;;;;;;21.50;57.52;100523.56;5139541;27;751;-44
2021/07/12 00:10:15;;;;;;;;;;;;;;;21.42;57.87;100525.16;5138773;27;843;-45
2021/07/12 00:12:41;;;;;;;;;;;;;;;21.14;59.03;100524.38;5139343;27;763;-48
2021/07/12 00:15:07;;;;;;;;;;;;;;;20.98;58.68;100521.97;5139050;27;735;-46
2021/07/12 00:17:32;;;;;;;;;;;;;;;20.61;58.16;100521.06;5138840;27;802;-45
2021/07/12 00:19:58;;;;;;;;;;;;;;;20.96;60.32;100517.91;5124456;27;949;-48
2021/07/12 00:22:23;;;;;;;;;;;;;;;21.00;59.74;100507.84;5118669;28;854;-45
2021/07/12 00:24:48;;;;;;;;;;;;;;;21.25;59.12;100524.97;5118079;28;1905;-44
2021/07/12 00:27:14;;;;;;;;;;;;;;;21.22;59.11;100520.88;5118270;27;743;-45
2021/07/12 00:29:39;;;;;;;;;;;;;;;21.26;58.93;100513.59;5118278;28;779;-46
2021/07/12 00:32:05;;;;;;;;;;;;;;;21.25;59.14;100516.69;5117890;28;775;-47
2021/07/12 00:34:30;;;;;;;;;;;;;;;21.27;58.96;100511.69;5117927;27;957;-48
2021/07/12 00:36:56;;;;;;;;;;;;;;;21.17;59.53;100510.78;5118384;28;842;-46
2021/07/12 00:39:22;;;;;;;;;;;;;;;21.00;58.38;100507.84;5116366;28;1108;-46
2021/07/12 00:41:47;;;;;;;;;;;;;;;20.78;59.85;100501.13;5118548;28;748;-46
2021/07/12 00:44:13;;;;;;;;;;;;;;;20.99;60.62;100495.97;5118127;28;1987;-48
2021/07/12 00:46:38;;;;;;;;;;;;;;;21.20;59.59;100495.50;5117597;28;810;-47
2021/07/12 00:49:04;;;;;;;;;;;;;;;21.11;59.92;100498.22;5117829;27;965;-44
2021/07/12 00:51:29;;;;;;;;;;;;;;;21.35;59.49;100497.13;5118403;28;736;-47
2021/07/12 00:53:55;;;;;;;;;;;;;;;21.36;59.31;100501.50;5117368;28;799;-45
2021/07/12 00:56:27;;;;;;;;;;;;;;;21.11;60.05;100505.66;5116851;28;735;-47
2021/07/12 00:58:54;;;;;;;;;;;;;;;21.23;59.75;100502.38;5117744;28;839;-44
2021/07/12 01:01:20;;;;;;;;;;;;;;;20.92;58.73;100497.53;5117233;28;826;-47
2021/07/12 01:03:47;;;;;;;;;;;;;;;21.01;60.16;100515.00;5119814;27;1921;-46
2021/07/12 01:06:13;;;;;;;;;;;;;;;21.00;59.37;100502.34;5137999;27;857;-45
2021/07/12 01:08:38;;;;;;;;;;;;;;;21.30;58.17;100505.53;5137233;27;786;-46
2021/07/12 01:11:11;;;;;;;;;;;;;;;21.26;58.58;100515.56;5138000;27;794;-47
2021/07/12 01:13:48;;;;;;;;;;;;;;;21.19;58.79;100513.22;5136835;27;759;-45
2021/07/12 01:16:26;;;;;;;;;;;;;;;21.40;58.16;100510.00;5137891;27;813;-48
2021/07/12 01:19:15;;;;;;;;;;;;;;;21.40;58.45;100510.00;5132729;27;976;-47
2021/07/12 01:21:48;;;;;;;;;;;;;;;21.33;58.51;100513.19;5117236;28;731;-49
2021/07/12 01:24:14;;;;;;;;;;;;;;;21.17;59.13;100507.19;5117051;28;1913;-46
2021/07/12 01:27:07;;;;;;;;;;;;;;;21.17;58.94;100502.47;5117436;28;508;-44
2021/07/12 01:29:38;;;;;;;;;;;;;;;20.81;58.86;100499.69;5100241;28;1108;-46
2021/07/12 01:32:06;;;;;;;;;;;;;;;20.71;60.91;100503.50;5116278;27;1298;-46
2021/07/12 01:34:35;;;;;;;;;;;;;;;21.15;59.23;100493.69;5125970;27;1104;-46
2021/07/12 01:37:13;;;;;;;;;;;;;;;21.29;58.57;100498.34;5137769;27;790;-46
2021/07/12 01:39:47;;;;;;;;;;;;;;;21.18;58.97;100506.88;5137657;27;810;-45
2021/07/12 01:42:46;;;;;;;;;;;;;;;21.36;58.52;100513.38;5119122;27;1238;-44
2021/07/12 01:45:14;;;;;;;;;;;;;;;21.37;58.45;100505.91;5092506;27;1918;-47
2021/07/12 01:47:45;;;;;;;;;;;;;;;21.29;58.73;100507.44;5119448;27;1365;-47
2021/07/12 01:50:14;;;;;;;;;;;;;;;21.13;59.37;100506.19;5120930;27;988;-48
2021/07/12 01:52:43;;;;;;;;;;;;;;;;;;5115344;28;1555;-44
2021/07/12 01:55:17;;;;;;;;;;;;;;;20.92;59.58;100512.16;5115694;28;2165;-47
2021/07/12 01:58:03;;;;;;;;;;;;;;;21.04;59.77;100508.84;5098343;28;1291;-46
2021/07/12 02:00:30;;;;;;;;;;;;;;;21.15;59.21;100502.00;5105246;28;1450;-43
2021/07/12 02:02:59;;;;;;;;;;;;;;;21.24;58.88;100509.50;5115312;28;1035;-43
2021/07/12 02:05:35;;;;;;;;;;;;;;;21.36;58.27;100507.84;5134287;27;1922;-46
2021/07/12 02:08:02;;;;;;;;;;;;;;;21.33;57.44;100508.47;5119181;28;1266;-46
2021/07/12 02:10:31;;;;;;;;;;;;;;;21.27;58.15;100503.38;5135262;28;816;-43
2021/07/12 02:13:00;;;;;;;;;;;;;;;21.27;58.23;100501.44;5119732;28;1176;-43
2021/07/12 02:15:34;;;;;;;;;;;;;;;21.24;58.68;100504.81;5135948;28;1266;-43
2021/07/12 02:18:03;;;;;;;;;;;;;;;21.12;59.13;100510.06;5137205;27;799;-46
2021/07/12 02:20:37;;;;;;;;;;;;;;;20.82;57.92;100515.97;5136845;27;1168;-44
2021/07/12 02:23:03;;;;;;;;;;;;;;;20.82;59.99;100517.91;5139621;27;778;-45
2021/07/12 02:25:28;;;;;;;;;;;;;;;21.08;59.62;100507.09;5122870;27;1913;-43
2021/07/12 02:27:54;;;;;;;;;;;;;;;21.29;58.73;100515.75;5140260;27;1404;-43
2021/07/12 02:30:21;;;;;;;;;;;;;;;21.27;58.88;100518.00;5139533;27;1335;-44
2021/07/12 02:32:48;;;;;;;;;;;;;;;21.11;59.54;100517.56;5139946;27;2056;-43
2021/07/12 02:35:14;;;;;;;;;;;;;;;21.24;59.05;100526.94;5118847;27;1363;-44
2021/07/12 02:37:44;;;;;;;;;;;;;;;21.45;58.16;100512.66;5120002;27;1354;-44
2021/07/12 02:40:12;;;;;;;;;;;;;;;21.36;58.50;100520.84;5120615;28;759;-44
2021/07/12 02:42:38;;;;;;;;;;;;;;;21.11;59.22;100520.31;5120417;27;755;-46
2021/07/12 02:45:04;;;;;;;;;;;;;;;20.91;58.50;100527.09;5119163;28;1902;-44
2021/07/12 02:47:33;;;;;;;;;;;;;;;20.74;59.98;100516.69;5118983;28;1063;-42
2021/07/12 02:49:59;;;;;;;;;;;;;;;20.96;59.87;100523.44;5139432;27;1192;-42
2021/07/12 02:52:33;;;;;;;;;;;;;;;21.26;58.83;100523.88;5139019;27;1219;-42
2021/07/12 02:55:02;;;;;;;;;;;;;;;21.29;58.77;100509.41;5139423;27;852;-43
2021/07/12 02:57:29;;;;;;;;;;;;;;;21.30;58.74;100516.59;5140762;27;850;-43
2021/07/12 02:59:56;;;;;;;;;;;;;;;21.24;58.81;100509.50;5138972;27;775;-43
2021/07/12 03:02:22;;;;;;;;;;;;;;;21.41;58.59;100523.50;5140422;27;1498;-43
2021/07/12 03:04:48;;;;;;;;;;;;;;;21.45;58.35;100518.19;5138948;27;1914;-44
2021/07/12 03:07:36;;;;;;;;;;;;;;;21.25;59.09;100517.53;5140274;27;821;-43
2021/07/12 03:10:07;;;;;;;;;;;;;;;20.95;57.57;100514.28;5136862;27;1403;-44
2021/07/12 03:12:35;;;;;;;;;;;;;;;20.71;60.44;100517.31;5160133;27;1387;-44
2021/07/12 03:15:04;;;;;;;;;;;;;;;21.09;58.88;100513.47;5159171;27;851;-49
2021/07/12 03:17:30;;;;;;;;;;;;;;;21.28;58.45;100522.44;5161577;27;731;-46
2021/07/12 03:19:57;;;;;;;;;;;;;;;21.20;58.67;100517.63;5114635;27;1394;-45
2021/07/12 03:22:22;;;;;;;;;;;;;;;21.23;58.71;100522.53;5133140;27;816;-45
2021/07/12 03:24:50;;;;;;;;;;;;;;;21.24;58.71;100517.81;5122566;27;1909;-45
2021/07/12 03:27:19;;;;;;;;;;;;;;;21.06;59.39;100517.66;5139831;27;837;-44
2021/07/12 03:29:44;;;;;;;;;;;;;;;21.13;59.38;100512.53;5139850;27;783;-46
2021/07/12 03:32:10;;;;;;;;;;;;;;;21.00;57.78;100507.84;5138133;27;758;-45
2021/07/12 03:34:35;;;;;;;;;;;;;;;20.89;60.23;100512.78;5121502;27;1160;-47
2021/07/12 03:37:01;;;;;;;;;;;;;;;21.04;59.84;100519.91;5139866;27;805;-43
2021/07/12 03:39:27;;;;;;;;;;;;;;;21.12;59.29;100512.84;5139788;27;739;-45
2021/07/12 03:41:53;;;;;;;;;;;;;;;21.26;58.97;100521.09;5139772;27;815;-46
2021/07/12 03:44:19;;;;;;;;;;;;;;;21.36;58.77;100520.84;5137881;27;1992;-43
2021/07/12 03:46:45;;;;;;;;;;;;;;;21.38;58.66;100521.38;5121890;27;1124;-44
2021/07/12 03:49:12;;;;;;;;;;;;;;;21.31;58.84;100523.75;5138286;27;1160;-45
2021/07/12 03:51:42;;;;;;;;;;;;;;;21.05;59.67;100515.22;5138122;27;771;-45
2021/07/12 03:54:08;;;;;;;;;;;;;;;20.88;57.77;100510.34;5139322;27;827;-50
2021/07/12 03:56:33;;;;;;;;;;;;;;;20.82;60.44;100518.72;5139647;27;830;-45
2021/07/12 03:58:59;;;;;;;;;;;;;;;20.80;60.81;100512.69;5139575;27;754;-56
2021/07/12 04:01:24;;;;;;;;;;;;;;;21.11;59.63;100508.44;5139751;27;747;-47
2021/07/12 04:03:50;;;;;;;;;;;;;;;21.38;58.70;100513.06;5134881;27;1913;-46
2021/07/12 04:06:16;;;;;;;;;;;;;;;21.36;58.97;100518.91;5139030;27;798;-45
2021/07/12 04:08:42;;;;;;;;;;;;;;;21.51;58.28;100511.38;5138223;27;1219;-43
2021/07/12 04:11:09;;;;;;;;;;;;;;;;;;5139425;27;735;-42
2021/07/12 04:13:35;;;;;;;;;;;;;;;21.19;58.76;100504.94;5139257;27;774;-44
2021/07/12 04:16:00;;;;;;;;;;;;;;;20.80;58.22;100509.94;5139428;27;832;-42
2021/07/12 04:18:26;;;;;;;;;;;;;;;20.93;60.31;100507.44;5137962;27;944;-43
2021/07/12 04:20:51;;;;;;;;;;;;;;;21.30;59.10;100522.13;5118473;28;815;-46
2021/07/12 04:23:16;;;;;;;;;;;;;;;21.35;59.03;100514.50;5118379;28;819;-43
2021/07/12 04:25:42;;;;;;;;;;;;;;;21.45;58.60;100518.19;5118543;28;1968;-46
2021/07/12 04:28:07;;;;;;;;;;;;;;;21.48;58.72;100520.31;5118425;28;759;-45
2021/07/12 04:30:33;;;;;;;;;;;;;;;21.50;58.65;100513.34;5117276;27;1068;-48
2021/07/12 04:32:58;;;;;;;;;;;;;;;21.15;59.98;100521.34;5118557;28;823;-41
2021/07/12 04:35:24;;;;;;;;;;;;;;;21.19;59.26;100519.56;5117238;27;957;-42
2021/07/12 04:37:49;;;;;;;;;;;;;;;20.52;57.96;100520.97;5118294;28;744;-43
2021/07/12 04:40:17;;;;;;;;;;;;;;;21.09;60.44;100522.56;5117284;27;1429;-42
2021/07/12 04:42:42;;;;;;;;;;;;;;;21.49;59.70;100525.53;5117588;28;735;-43
2021/07/12 04:45:08;;;;;;;;;;;;;;;21.60;59.04;100525.31;5117102;28;1969;-42
2021/07/12 04:47:35;;;;;;;;;;;;;;;21.60;58.91;100525.31;5117297;28;1082;-43
2021/07/12 04:50:00;;;;;;;;;;;;;;;21.76;58.36;100523.81;5127518;27;1020;-45
2021/07/12 04:52:26;;;;;;;;;;;;;;;21.65;58.73;100537.06;5138574;27;747;-44
2021/07/12 04:54:51;;;;;;;;;;;;;;;21.17;60.44;100521.84;5138465;27;787;-45
2021/07/12 04:57:17;;;;;;;;;;;;;;;21.02;60.27;100534.03;5138087;27;707;-43
2021/07/12 04:59:42;;;;;;;;;;;;;;;20.81;57.48;100527.31;5136790;27;1204;-44
2021/07/12 05:02:08;;;;;;;;;;;;;;;20.92;60.70;100534.28;5138272;27;790;-42
2021/07/12 05:04:34;;;;;;;;;;;;;;;21.24;60.90;100528.88;5133272;27;1972;-45
2021/07/12 05:06:59;;;;;;;;;;;;;;;21.44;60.30;100527.59;5138229;27;815;-42
2021/07/12 05:09:25;;;;;;;;;;;;;;;21.68;59.18;100527.31;5137688;27;747;-42
2021/07/12 05:11:50;;;;;;;;;;;;;;;21.58;57.97;100527.59;5138273;27;786;-42
2021/07/12 05:14:16;;;;;;;;;;;;;;;21.31;60.08;100530.09;5137955;27;799;-44
2021/07/12 05:16:42;;;;;;;;;;;;;;;21.26;60.70;100526.63;5137863;27;834;-42
2021/07/12 05:19:07;;;;;;;;;;;;;;;20.97;59.43;100525.03;5130801;27;961;-42
2021/07/12 05:21:32;;;;;;;;;;;;;;;20.96;62.02;100527.00;5117061;28;735;-44
2021/07/12 05:23:58;;;;;;;;;;;;;;;21.47;62.20;100526.97;5116992;28;1968;-46
2021/07/12 05:26:23;;;;;;;;;;;;;;;21.89;60.75;100527.63;5117354;28;862;-43
2021/07/12 05:28:49;;;;;;;;;;;;;;;21.77;61.07;100530.16;5116723;28;766;-41
2021/07/12 05:31:14;;;;;;;;;;;;;;;21.50;62.20;100531.88;5117176;28;775;-41
2021/07/12 05:33:40;;;;;;;;;;;;;;;21.47;61.42;100530.53;5116739;27;961;-42
2021/07/12 05:36:05;;;;;;;;;;;;;;;20.91;59.74;100537.34;5116434;28;735;-41
2021/07/12 05:38:31;;;;;;;;;;;;;;;21.17;60.84;100532.91;5116965;28;747;-41
2021/07/12 05:40:56;;;;;;;;;;;;;;;21.62;62.19;100545.19;5117004;28;811;-44
2021/07/12 05:43:22;;;;;;;;;;;;;;;21.80;62.89;100540.59;5117201;28;811;-41
2021/07/12 05:45:47;;;;;;;;;;;;;;;21.93;62.28;100539.69;5116900;28;1918;-42
2021/07/12 05:48:13;;;;;;;;;;;;;;;21.60;63.16;100544.66;5116567;28;786;-39
2021/07/12 05:50:38;;;;;;;;;;;;;;;21.62;63.63;100547.97;5115417;27;964;-41
2021/07/12 05:53:04;;;;;;;;;;;;;;;21.19;61.37;100538.91;5116167;28;740;-44
2021/07/12 05:55:29;;;;;;;;;;;;;;;20.37;58.93;100546.13;5115853;28;790;-44
2021/07/12 05:57:55;;;;;;;;;;;;;;;20.76;60.40;100547.59;5114013;28;783;-46
2021/07/12 06:00:20;;;;;;;;;;;;;;;20.94;60.39;100547.78;5116173;28;866;-46
2021/07/12 06:02:47;;;;;;;;;;;;;;;21.31;59.19;100554.19;5116334;28;1171;-43
2021/07/12 06:05:13;;;;;;;;;;;;;;;21.57;59.82;100550.84;5128400;27;1983;-43
2021/07/12 06:07:39;;;;;;;;;;;;;;;21.83;60.88;100551.03;5137602;27;798;-44
2021/07/12 06:10:05;;;;;;;;;;;;;;;22.09;61.25;100559.53;5137480;27;858;-44
2021/07/12 06:12:30;;;;;;;;;;;;;;;21.97;62.16;100545.44;5137028;27;750;-42
2021/07/12 06:14:56;;;;;;;;;;;;;;;21.74;63.72;100545.44;5137102;27;775;-43
2021/07/12 06:17:21;;;;;;;;;;;;;;;21.48;62.35;100546.00;5137794;27;759;-48
2021/07/12 06:19:46;;;;;;;;;;;;;;;20.65;58.35;100551.63;5123773;27;1007;-42
2021/07/12 06:22:12;;;;;;;;;;;;;;;20.82;57.85;100546.34;5125950;28;1233;-43
2021/07/12 06:24:37;;;;;;;;;;;;;;;20.71;57.86;100547.69;5118501;27;2046;-44
2021/07/12 06:27:03;;;;;;;;;;;;;;;20.61;55.79;100545.91;5121719;28;1089;-44
2021/07/12 06:29:28;;;;;;;;;;;;;;;20.41;53.42;100541.63;5135689;28;1247;-42
2021/07/12 06:31:55;;;;;;;;;;;;;;;20.36;52.70;100547.22;5119009;27;1294;-44
2021/07/12 06:34:21;;;;;;;;;;;;;;;20.64;53.53;100544.50;5116062;27;1004;-43
2021/07/12 06:36:46;;;;;;;;;;;;;;;20.99;56.95;100554.00;5116723;28;878;-42
2021/07/12 06:39:12;;;;;;;;;;;;;;;21.52;58.08;100549.81;5116361;28;811;-44
2021/07/12 06:41:38;;;;;;;;;;;;;;;21.67;60.02;100559.72;5116341;28;763;-42
2021/07/12 06:44:04;;;;;;;;;;;;;;;21.64;61.58;100556.75;5116850;28;1905;-42
2021/07/12 06:46:36;;;;;;;;;;;;;;;21.65;62.83;100550.09;5114854;28;1093;-43
2021/07/12 06:49:02;;;;;;;;;;;;;;;21.32;62.82;100553.03;5120702;27;1109;-44
2021/07/12 06:51:28;;;;;;;;;;;;;;;21.07;60.76;100558.00;5137134;27;800;-45
2021/07/12 06:53:54;;;;;;;;;;;;;;;21.07;61.48;100559.94;5136033;28;1211;-46
2021/07/12 06:56:20;;;;;;;;;;;;;;;21.76;63.52;100553.44;5136689;27;818;-44
2021/07/12 06:58:45;;;;;;;;;;;;;;;22.05;64.51;100561.28;5137242;27;743;-47
2021/07/12 07:01:11;;;;;;;;;;;;;;;22.14;65.14;100564.91;5136981;27;683;-45
2021/07/12 07:03:36;;;;;;;;;;;;;;;21.70;66.48;100559.09;5134534;27;1058;-43
2021/07/12 07:06:03;;;;;;;;;;;;;;;21.82;64.15;100557.69;5134026;27;1247;-42
2021/07/12 07:08:33;;;;;;;;;;;;;;;20.66;59.00;100558.81;5139903;27;821;-42
2021/07/12 07:10:58;;;;;;;;;;;;;;;20.29;59.56;100566.16;5140580;27;849;-41
2021/07/12 07:13:24;;;;;;;;;;;;;;;20.26;58.84;100562.03;5140932;27;794;-44
2021/07/12 07:15:54;;;;;;;;;;;;;;;20.54;55.99;100556.56;5140618;27;817;-45
2021/07/12 07:18:20;;;;;;;;;;;;;;;20.74;54.13;100560.09;5139909;27;940;-42
2021/07/12 07:20:45;;;;;;;;;;;;;;;20.46;53.86;100563.59;5119429;28;949;-47
2021/07/12 07:23:11;;;;;;;;;;;;;;;20.70;52.62;100559.88;5101657;28;1312;-44
2021/07/12 07:25:36;;;;;;;;;;;;;;;20.63;52.39;100564.94;5119872;27;1909;-48
2021/07/12 07:28:02;;;;;;;;;;;;;;;20.35;52.55;100564.91;5138859;27;904;-43
2021/07/12 07:30:28;;;;;;;;;;;;;;;20.43;52.30;100566.16;5159594;27;1050;-45
2021/07/12 07:32:53;;;;;;;;;;;;;;;20.48;53.10;100558.59;5160718;27;798;-45
2021/07/12 07:35:19;;;;;;;;;;;;;;;20.72;54.28;100568.69;5160573;27;941;-44
2021/07/12 07:37:46;;;;;;;;;;;;;;;21.04;55.34;100566.91;5161196;27;809;-43
2021/07/12 07:40:12;;;;;;;;;;;;;;;21.30;55.66;100556.09;5160473;27;790;-43
2021/07/12 07:42:37;;;;;;;;;;;;;;;21.42;56.37;100558.34;5160780;27;771;-45
2021/07/12 07:45:03;;;;;;;;;;;;;;;21.40;57.19;100555.06;5160838;27;1970;-46
2021/07/12 07:47:29;;;;;;;;;;;;;;;21.45;57.71;100567.97;5160308;27;751;-51
2021/07/12 07:49:54;;;;;;;;;;;;;;;21.71;57.49;100562.66;5160503;27;1020;-42
2021/07/12 07:52:20;;;;;;;;;;;;;;;21.09;59.83;100560.47;5160825;27;866;-42
2021/07/12 07:54:45;;;;;;;;;;;;;;;21.18;60.03;100558.59;5160241;27;866;-42
2021/07/12 07:57:11;;;;;;;;;;;;;;;20.61;58.73;100559.72;5160131;27;742;-42
2021/07/12 07:59:36;;;;;;;;;;;;;;;20.77;61.48;100560.25;5160813;27;763;-42
2021/07/12 08:02:01;;;;;;;;;;;;;;;21.27;60.97;100556.72;5160161;27;735;-40
2021/07/12 08:04:27;;;;;;;;;;;;;;;21.39;60.39;100558.94;5159672;27;1905;-41
2021/07/12 08:06:52;;;;;;;;;;;;;;;21.63;59.67;100557.88;5160230;27;810;-48
2021/07/12 08:09:18;;;;;;;;;;;;;;;21.52;60.17;100557.31;5159831;27;858;-45
2021/07/12 08:11:46;;;;;;;;;;;;;;;21.29;61.07;100556.41;5141957;27;894;-44
2021/07/12 08:14:12;;;;;;;;;;;;;;;21.40;60.05;100560.59;5160385;27;798;-45
2021/07/12 08:16:37;;;;;;;;;;;;;;;20.61;59.20;100561.69;5160182;27;952;-43
2021/07/12 08:19:03;;;;;;;;;;;;;;;21.05;61.17;100570.50;5152820;27;1008;-56
2021/07/12 08:21:28;;;;;;;;;;;;;;;21.26;62.06;100566.16;5139115;27;756;-44
2021/07/12 08:23:54;;;;;;;;;;;;;;;21.74;60.59;100561.22;5139625;27;1980;-48
2021/07/12 08:26:19;;;;;;;;;;;;;;;21.76;60.18;100568.09;5139398;27;875;-41
2021/07/12 08:28:44;;;;;;;;;;;;;;;21.49;61.14;100564.25;5132897;27;1102;-43
2021/07/12 08:31:11;;;;;;;;;;;;;;;21.51;61.06;100563.94;5159989;27;826;-43
2021/07/12 08:33:37;;;;;;;;;;;;;;;21.30;58.92;100566.34;5159217;27;953;-44
2021/07/12 08:36:02;;;;;;;;;;;;;;;20.74;60.19;100565.59;5159449;27;841;-43
2021/07/12 08:38:28;;;;;;;;;;;;;;;21.11;61.90;100563.72;5159722;27;830;-44
2021/07/12 08:40:54;;;;;;;;;;;;;;;21.64;61.92;100573.34;5159616;27;849;-43
2021/07/12 08:43:19;;;;;;;;;;;;;;;21.81;61.93;100567.97;5158422;27;1156;-43
2021/07/12 08:45:45;;;;;;;;;;;;;;;21.62;63.25;100564.56;5159756;27;1909;-41
2021/07/12 08:48:10;;;;;;;;;;;;;;;21.68;62.86;100566.06;5158889;27;769;-43
2021/07/12 08:50:36;;;;;;;;;;;;;;;20.68;59.87;100562.94;5159264;27;953;-44
2021/07/12 08:53:01;;;;;;;;;;;;;;;20.31;58.36;100559.19;5159672;27;750;-42
2021/07/12 08:55:26;;;;;;;;;;;;;;;20.34;59.04;100560.50;5159303;27;743;-42
2021/07/12 08:57:55;;;;;;;;;;;;;;;20.64;57.58;100559.13;5159133;27;778;-43
2021/07/12 09:00:20;;;;;;;;;;;;;;;20.75;56.98;100559.78;5159037;27;846;-43
2021/07/12 09:02:46;;;;;;;;;;;;;;;21.03;56.64;100557.81;5140446;27;1332;-46
2021/07/12 09:05:11;;;;;;;;;;;;;;;21.16;56.76;100561.66;5159131;27;1901;-41
2021/07/12 09:07:37;;;;;;;;;;;;;;;21.37;56.53;100555.69;5159232;27;803;-42
2021/07/12 09:10:09;;;;;;;;;;;;;;;21.45;56.81;100552.19;5158875;27;834;-41
2021/07/12 09:12:38;;;;;;;;;;;;;;;21.36;57.22;100548.50;5158951;27;791;-41
2021/07/12 09:15:08;;;;;;;;;;;;;;;21.50;57.36;100560.38;5159552;27;814;-41
2021/07/12 09:17:34;;;;;;;;;;;;;;;21.30;57.90;100560.81;5158596;27;732;-47
2021/07/12 09:19:59;;;;;;;;;;;;;;;20.87;59.63;100563.97;5143918;27;953;-48
2021/07/12 09:22:35;;;;;;;;;;;;;;;20.91;58.79;100553.94;5138417;27;855;-41
2021/07/12 09:25:02;;;;;;;;;;;;;;;20.03;59.16;100560.25;5137734;27;1972;-52
2021/07/12 09:27:28;;;;;;;;;;;;;;;20.65;60.77;100563.53;5138082;27;835;-47
2021/07/12 09:29:54;;;;;;;;;;;;;;;21.34;59.94;100557.13;5137377;27;881;-45
2021/07/12 09:32:20;;;;;;;;;;;;;;;21.73;60.54;100557.66;5119422;27;1376;-43
2021/07/12 09:34:46;;;;;;;;;;;;;;;21.58;62.13;100553.28;5137813;27;1023;-43
2021/07/12 09:37:12;;;;;;;;;;;;;;;21.65;62.84;100566.69;5138179;27;764;-49
2021/07/12 09:39:42;;;;;;;;;;;;;;;21.68;59.97;100566.06;5147154;27;914;-44
2021/07/12 09:42:07;;;;;;;;;;;;;;;20.36;58.26;100572.09;5157979;27;877;-47
2021/07/12 09:44:33;;;;;;;;;;;;;;;20.80;60.27;100570.72;5158455;27;1909;-47
2021/07/12 09:47:03;;;;;;;;;;;;;;;20.96;60.76;100562.13;5157939;27;877;-54
2021/07/12 09:49:28;;;;;;;;;;;;;;;21.07;60.05;100579.28;5147996;27;948;-46
2021/07/12 09:51:56;;;;;;;;;;;;;;;21.08;59.29;100573.44;5137384;27;756;-42
2021/07/12 09:54:22;;;;;;;;;;;;;;;21.18;58.59;100569.66;5137403;27;819;-45
2021/07/12 09:56:49;;;;;;;;;;;;;;;21.42;57.41;100574.09;5137620;27;827;-45
2021/07/12 09:59:14;;;;;;;;;;;;;;;21.45;57.00;100576.28;5142638;27;1094;-45
2021/07/12 10:01:50;;;;;;;;;;;;;;;21.34;57.06;100573.72;5158030;27;846;-45
2021/07/12 10:04:16;;;;;;;;;;;;;;;21.05;57.95;100574.06;5157041;27;1968;-46
2021/07/12 10:06:42;;;;;;;;;;;;;;;21.13;57.59;100578.06;5158394;27;719;-45
2021/07/12 10:09:08;;;;;;;;;;;;;;;20.22;57.41;100576.78;5138779;27;776;-44
2021/07/12 10:11:34;;;;;;;;;;;;;;;20.47;60.92;100568.00;5158078;27;735;-46
2021/07/12 10:13:59;;;;;;;;;;;;;;;21.29;60.63;100570.25;5158332;27;790;-44
2021/07/12 10:16:25;;;;;;;;;;;;;;;21.78;61.12;100574.09;5139511;27;752;-44
2021/07/12 10:18:50;;;;;;;;;;;;;;;21.79;62.31;100575.75;5152385;27;933;-48
2021/07/12 10:21:16;;;;;;;;;;;;;;;21.60;64.10;100575.09;5137481;28;763;-40
2021/07/12 10:23:41;;;;;;;;;;;;;;;21.30;61.27;100566.34;5137108;28;759;-42
2021/07/12 10:26:06;;;;;;;;;;;;;;;20.98;57.93;100576.44;5137105;28;1976;-43
2021/07/12 10:28:39;;;;;;;;;;;;;;;21.37;60.98;100572.28;5118919;28;847;-47
2021/07/12 10:31:17;;;;;;;;;;;;;;;21.48;62.01;100576.44;5136477;28;747;-42
2021/07/12 10:33:42;;;;;;;;;;;;;;;21.69;62.33;100576.81;5136626;28;953;-41
2021/07/12 10:36:08;;;;;;;;;;;;;;;21.79;61.46;100564.69;5137416;28;794;-42
2021/07/12 10:38:37;;;;;;;;;;;;;;;21.77;60.41;100574.44;5136914;28;798;-42
2021/07/12 10:41:22;;;;;;;;;;;;;;;21.53;59.92;100567.22;5137434;27;735;-41
2021/07/12 10:43:47;;;;;;;;;;;;;;;21.35;59.74;100555.19;5141234;27;1906;-43
2021/07/12 10:46:28;;;;;;;;;;;;;;;21.07;59.97;100565.47;5141001;27;809;-42
2021/07/12 10:49:06;;;;;;;;;;;;;;;20.97;58.00;100561.81;5140993;27;969;-46
2021/07/12 10:51:35;;;;;;;;;;;;;;;20.45;59.44;100570.25;5141056;27;751;-47
2021/07/12 10:54:01;;;;;;;;;;;;;;;20.85;59.96;100565.06;5140786;27;716;-48
2021/07/12 10:57:02;;;;;;;;;;;;;;;21.00;59.01;100566.72;5122544;27;763;-42
2021/07/12 10:59:37;;;;;;;;;;;;;;;21.37;57.54;100569.50;5126135;27;1311;-43
2021/07/12 11:02:04;;;;;;;;;;;;;;;21.34;57.34;100561.84;5141232;27;803;-42
2021/07/12 11:04:29;;;;;;;;;;;;;;;21.49;56.85;100564.25;5127829;27;1941;-47
2021/07/12 11:06:56;;;;;;;;;;;;;;;21.29;57.25;100565.53;5161764;27;759;-46
2021/07/12 11:09:40;;;;;;;;;;;;;;;20.91;58.53;100576.03;5161222;27;830;-43
2021/07/12 11:12:24;;;;;;;;;;;;;;;20.45;57.60;100570.25;5161571;27;870;-43
2021/07/12 11:15:19;;;;;;;;;;;;;;;20.45;60.28;100574.97;5161193;27;763;-44
2021/07/12 11:17:51;;;;;;;;;;;;;;;21.25;60.51;100569.22;5143385;27;1110;-44
2021/07/12 11:20:16;;;;;;;;;;;;;;;21.93;60.35;100577.66;5160743;27;938;-42
2021/07/12 11:22:53;;;;;;;;;;;;;;;21.57;62.97;100582.06;5160921;27;774;-44
2021/07/12 11:25:42;;;;;;;;;;;;;;;21.67;63.84;100589.31;5161314;27;1898;-42
2021/07/12 11:28:08;;;;;;;;;;;;;;;21.34;59.61;100590.31;5149915;27;1166;-43
2021/07/12 11:30:35;;;;;;;;;;;;;;;21.09;61.12;100594.44;5160728;27;826;-43
2021/07/12 11:33:00;;;;;;;;;;;;;;;21.46;63.10;100597.25;5161213;27;845;-43
2021/07/12 11:35:26;;;;;;;;;;;;;;;21.17;65.13;100590.16;5160257;27;945;-40
2021/07/12 11:37:51;;;;;;;;;;;;;;;21.15;64.24;100589.63;5160890;27;738;-45
2021/07/12 11:40:17;;;;;;;;;;;;;;;20.91;63.64;100587.91;5142208;27;1340;-43
2021/07/12 11:42:45;;;;;;;;;;;;;;;21.16;60.94;100589.31;5160710;27;825;-43
2021/07/12 11:45:11;;;;;;;;;;;;;;;20.38;58.70;100591.91;5160633;27;1972;-43
2021/07/12 11:47:40;;;;;;;;;;;;;;;20.79;60.65;100590.34;5160905;27;826;-45
2021/07/12 11:50:08;;;;;;;;;;;;;;;21.00;60.76;100590.78;5160478;27;1005;-46
2021/07/12 11:52:34;;;;;;;;;;;;;;;21.31;59.00;100584.59;5159732;27;739;-44
2021/07/12 11:55:16;;;;;;;;;;;;;;;21.27;58.99;100578.06;5160432;27;802;-43
2021/07/12 11:57:46;;;;;;;;;;;;;;;21.49;57.59;100572.56;5160776;27;806;-43
2021/07/12 12:00:15;;;;;;;;;;;;;;;21.42;57.75;100574.09;5160000;27;763;-43
2021/07/12 12:02:41;;;;;;;;;;;;;;;20.91;59.38;100571.31;5160407;27;794;-45
2021/07/12 12:05:11;;;;;;;;;;;;;;;21.01;58.43;100562.00;5159523;27;1988;-45
2021/07/12 12:07:40;;;;;;;;;;;;;;;20.20;58.76;100557.72;5160182;27;803;-45
2021/07/12 12:10:23;;;;;;;;;;;;;;;20.71;60.59;100569.78;5160088;27;743;-43
2021/07/12 12:12:48;;;;;;;;;;;;;;;21.31;60.69;100573.53;5160341;27;789;-43
2021/07/12 12:15:24;;;;;;;;;;;;;;;21.77;61.31;100586.34;5159977;27;771;-43
2021/07/12 12:18:00;;;;;;;;;;;;;;;21.66;63.28;100579.41;5159976;27;803;-45
2021/07/12 12:20:25;;;;;;;;;;;;;;;21.75;63.71;100576.69;5141735;27;940;-41
2021/07/12 12:22:55;;;;;;;;;;;;;;;21.39;61.46;100581.06;5138727;27;743;-45
2021/07/12 12:25:20;;;;;;;;;;;;;;;20.93;58.79;100587.59;5139031;27;1897;-43
2021/07/12 12:27:46;;;;;;;;;;;;;;;21.35;61.00;100580.88;5120909;27;867;-43
2021/07/12 12:30:12;;;;;;;;;;;;;;;21.43;62.26;100584.03;5138664;27;743;-44
2021/07/12 12:32:37;;;;;;;;;;;;;;;21.66;62.23;100579.41;5119920;27;868;-43
2021/07/12 12:35:04;;;;;;;;;;;;;;;21.61;62.11;100583.09;5152837;27;993;-42
2021/07/12 12:37:36;;;;;;;;;;;;;;;21.55;61.65;100584.34;5159560;27;850;-45
2021/07/12 12:40:06;;;;;;;;;;;;;;;21.58;60.47;100571.84;5159407;27;798;-43
2021/07/12 12:42:31;;;;;;;;;;;;;;;21.77;58.59;100572.50;5159450;27;767;-42
2021/07/12 12:44:57;;;;;;;;;;;;;;;21.13;59.81;100576.13;5159005;27;1961;-43
2021/07/12 12:47:26;;;;;;;;;;;;;;;21.14;59.57;100575.00;5159623;27;739;-46
2021/07/12 12:49:52;;;;;;;;;;;;;;;20.93;58.11;100574.59;5159283;27;981;-41
2021/07/12 12:52:17;;;;;;;;;;;;;;;20.59;59.17;100580.50;5158701;27;782;-41
2021/07/12 12:54:44;;;;;;;;;;;;;;;20.94;59.90;100572.66;5159488;27;794;-46
2021/07/12 12:57:09;;;;;;;;;;;;;;;21.17;58.54;100563.31;5159410;27;798;-43